LPA weather

Public forecast

Using degrees Celsius for public forecast. Weather courtesy of forecast.io.

Closest aviation weather report (METAR) to La Palma Airport

Report is more than 6 hours old.

Closest report is Alfonso López Pumarejo Airport, 51.1 nm (94.6 km) NE. Retrieved 2020/08/14 20:00 UTC (19 hours ago):

SKVP 142000Z 23009KT 9999 FEW020 SCT200 34/24 A2976

Closest aviation forecast (TAF) to La Palma Airport

Closest forecast is Ernesto Cortissoz International Airport, 83.0 nm (153.7 km) NW. Retrieved 2020/08/15 12:00 UTC (3 hours ago):

TAF SKBQ 151030Z 1512/1612 VRB04KT 9999 SCT012 TEMPO 1517/1521 DZRA FEW015CB BECMG 1606/1608 VRB02KT TEMPO 1610/1612 3000 BR BKN010 TX33/1517Z TN26/1609Z